sensor_id;sensor_type;location;lat;lon;timestamp;P1;durP1;ratioP1;P2;durP2;ratioP2
72261;SDS011;60173;52.112;8.648;2023-12-20T00:00:10;22.40;;;8.32;;
72261;SDS011;60173;52.112;8.648;2023-12-20T00:02:37;16.88;;;9.40;;
72261;SDS011;60173;52.112;8.648;2023-12-20T00:05:04;16.80;;;8.30;;
72261;SDS011;60173;52.112;8.648;2023-12-20T00:07:31;20.45;;;9.25;;
72261;SDS011;60173;52.112;8.648;2023-12-20T00:09:57;14.68;;;8.02;;
72261;SDS011;60173;52.112;8.648;2023-12-20T00:12:24;17.15;;;9.15;;
72261;SDS011;60173;52.112;8.648;2023-12-20T00:14:50;14.77;;;8.48;;
72261;SDS011;60173;52.112;8.648;2023-12-20T00:17:16;15.43;;;7.72;;
72261;SDS011;60173;52.112;8.648;2023-12-20T00:19:43;16.63;;;7.60;;
72261;SDS011;60173;52.112;8.648;2023-12-20T00:22:09;13.80;;;7.53;;
72261;SDS011;60173;52.112;8.648;2023-12-20T00:24:36;15.70;;;7.97;;
72261;SDS011;60173;52.112;8.648;2023-12-20T00:27:02;22.27;;;8.77;;
72261;SDS011;60173;52.112;8.648;2023-12-20T00:29:29;16.63;;;8.27;;
72261;SDS011;60173;52.112;8.648;2023-12-20T00:31:55;21.08;;;8.80;;
72261;SDS011;60173;52.112;8.648;2023-12-20T00:34:22;14.77;;;7.68;;
72261;SDS011;60173;52.112;8.648;2023-12-20T00:36:48;16.75;;;7.80;;
72261;SDS011;60173;52.112;8.648;2023-12-20T00:39:15;20.48;;;8.07;;
72261;SDS011;60173;52.112;8.648;2023-12-20T00:41:41;11.85;;;6.78;;
72261;SDS011;60173;52.112;8.648;2023-12-20T00:44:08;18.92;;;6.88;;
72261;SDS011;60173;52.112;8.648;2023-12-20T00:46:34;12.85;;;5.53;;
72261;SDS011;60173;52.112;8.648;2023-12-20T00:49:01;12.32;;;6.07;;
72261;SDS011;60173;52.112;8.648;2023-12-20T00:51:27;11.38;;;4.88;;
72261;SDS011;60173;52.112;8.648;2023-12-20T00:53:54;14.98;;;4.55;;
72261;SDS011;60173;52.112;8.648;2023-12-20T00:56:20;10.90;;;4.18;;
72261;SDS011;60173;52.112;8.648;2023-12-20T00:58:47;13.85;;;3.80;;
72261;SDS011;60173;52.112;8.648;2023-12-20T01:01:13;10.32;;;3.25;;
72261;SDS011;60173;52.112;8.648;2023-12-20T01:03:40;14.93;;;3.35;;
72261;SDS011;60173;52.112;8.648;2023-12-20T01:06:06;12.95;;;3.28;;
72261;SDS011;60173;52.112;8.648;2023-12-20T01:08:33;13.30;;;3.38;;
72261;SDS011;60173;52.112;8.648;2023-12-20T01:10:59;14.00;;;2.92;;
72261;SDS011;60173;52.112;8.648;2023-12-20T01:13:26;9.82;;;2.60;;
72261;SDS011;60173;52.112;8.648;2023-12-20T01:15:52;11.85;;;3.22;;
72261;SDS011;60173;52.112;8.648;2023-12-20T01:18:19;9.35;;;3.20;;
72261;SDS011;60173;52.112;8.648;2023-12-20T01:20:45;13.60;;;3.22;;
72261;SDS011;60173;52.112;8.648;2023-12-20T01:23:12;16.77;;;3.25;;
72261;SDS011;60173;52.112;8.648;2023-12-20T01:25:39;7.63;;;2.83;;
72261;SDS011;60173;52.112;8.648;2023-12-20T01:28:05;10.07;;;2.63;;
72261;SDS011;60173;52.112;8.648;2023-12-20T01:30:32;11.65;;;2.58;;
72261;SDS011;60173;52.112;8.648;2023-12-20T01:32:59;8.57;;;2.00;;
72261;SDS011;60173;52.112;8.648;2023-12-20T01:35:26;8.65;;;2.50;;
72261;SDS011;60173;52.112;8.648;2023-12-20T01:37:53;10.63;;;2.50;;
72261;SDS011;60173;52.112;8.648;2023-12-20T01:40:19;13.38;;;2.60;;
72261;SDS011;60173;52.112;8.648;2023-12-20T01:42:46;10.57;;;2.50;;
72261;SDS011;60173;52.112;8.648;2023-12-20T01:45:13;9.43;;;2.60;;
72261;SDS011;60173;52.112;8.648;2023-12-20T01:47:39;10.50;;;2.45;;
72261;SDS011;60173;52.112;8.648;2023-12-20T01:50:06;11.77;;;2.50;;
72261;SDS011;60173;52.112;8.648;2023-12-20T01:52:33;16.42;;;2.75;;
72261;SDS011;60173;52.112;8.648;2023-12-20T01:55:01;16.83;;;3.08;;
72261;SDS011;60173;52.112;8.648;2023-12-20T01:57:27;16.30;;;2.78;;
72261;SDS011;60173;52.112;8.648;2023-12-20T01:59:54;9.05;;;2.35;;
72261;SDS011;60173;52.112;8.648;2023-12-20T02:02:21;9.55;;;2.90;;
72261;SDS011;60173;52.112;8.648;2023-12-20T02:04:48;13.05;;;2.70;;
72261;SDS011;60173;52.112;8.648;2023-12-20T02:07:15;12.73;;;3.03;;
72261;SDS011;60173;52.112;8.648;2023-12-20T02:09:42;12.85;;;2.75;;
72261;SDS011;60173;52.112;8.648;2023-12-20T02:12:08;16.63;;;2.85;;
72261;SDS011;60173;52.112;8.648;2023-12-20T02:14:35;12.32;;;3.28;;
72261;SDS011;60173;52.112;8.648;2023-12-20T02:17:01;9.45;;;3.20;;
72261;SDS011;60173;52.112;8.648;2023-12-20T02:19:28;20.60;;;3.88;;
72261;SDS011;60173;52.112;8.648;2023-12-20T02:22:08;14.30;;;3.58;;
72261;SDS011;60173;52.112;8.648;2023-12-20T02:24:35;13.77;;;3.90;;
72261;SDS011;60173;52.112;8.648;2023-12-20T02:27:01;12.82;;;3.78;;
72261;SDS011;60173;52.112;8.648;2023-12-20T02:29:29;16.67;;;4.03;;
72261;SDS011;60173;52.112;8.648;2023-12-20T02:31:55;16.95;;;4.13;;
72261;SDS011;60173;52.112;8.648;2023-12-20T02:34:22;11.77;;;3.90;;
72261;SDS011;60173;52.112;8.648;2023-12-20T02:36:48;15.27;;;4.10;;
72261;SDS011;60173;52.112;8.648;2023-12-20T02:39:15;17.75;;;4.05;;
72261;SDS011;60173;52.112;8.648;2023-12-20T02:41:41;20.30;;;3.95;;
72261;SDS011;60173;52.112;8.648;2023-12-20T02:44:08;15.48;;;3.90;;
72261;SDS011;60173;52.112;8.648;2023-12-20T02:46:34;12.55;;;4.20;;
72261;SDS011;60173;52.112;8.648;2023-12-20T02:49:01;16.45;;;4.05;;
72261;SDS011;60173;52.112;8.648;2023-12-20T02:51:27;21.10;;;4.20;;
72261;SDS011;60173;52.112;8.648;2023-12-20T02:53:54;16.88;;;3.92;;
72261;SDS011;60173;52.112;8.648;2023-12-20T02:56:20;15.98;;;4.35;;
72261;SDS011;60173;52.112;8.648;2023-12-20T02:58:47;12.57;;;3.88;;
72261;SDS011;60173;52.112;8.648;2023-12-20T03:01:13;13.30;;;3.47;;
72261;SDS011;60173;52.112;8.648;2023-12-20T03:03:40;20.45;;;4.75;;
72261;SDS011;60173;52.112;8.648;2023-12-20T03:06:06;22.08;;;4.55;;
72261;SDS011;60173;52.112;8.648;2023-12-20T03:08:33;19.13;;;4.43;;
72261;SDS011;60173;52.112;8.648;2023-12-20T03:10:59;20.08;;;4.55;;
72261;SDS011;60173;52.112;8.648;2023-12-20T03:13:26;21.52;;;5.63;;
72261;SDS011;60173;52.112;8.648;2023-12-20T03:15:52;20.88;;;4.53;;
72261;SDS011;60173;52.112;8.648;2023-12-20T03:18:19;18.88;;;4.95;;
72261;SDS011;60173;52.112;8.648;2023-12-20T03:20:45;17.65;;;5.45;;
72261;SDS011;60173;52.112;8.648;2023-12-20T03:23:12;17.10;;;4.63;;
72261;SDS011;60173;52.112;8.648;2023-12-20T03:25:38;30.42;;;6.47;;
72261;SDS011;60173;52.112;8.648;2023-12-20T03:28:05;22.05;;;5.47;;
72261;SDS011;60173;52.112;8.648;2023-12-20T03:30:31;21.55;;;5.00;;
72261;SDS011;60173;52.112;8.648;2023-12-20T03:32:58;17.90;;;5.50;;
72261;SDS011;60173;52.112;8.648;2023-12-20T03:35:24;20.50;;;6.22;;
72261;SDS011;60173;52.112;8.648;2023-12-20T03:37:51;19.92;;;5.55;;
72261;SDS011;60173;52.112;8.648;2023-12-20T03:40:17;22.90;;;5.43;;
72261;SDS011;60173;52.112;8.648;2023-12-20T03:42:44;17.88;;;5.93;;
72261;SDS011;60173;52.112;8.648;2023-12-20T03:45:10;24.23;;;6.75;;
72261;SDS011;60173;52.112;8.648;2023-12-20T03:47:37;19.15;;;6.03;;
72261;SDS011;60173;52.112;8.648;2023-12-20T03:50:04;25.23;;;7.25;;
72261;SDS011;60173;52.112;8.648;2023-12-20T03:52:31;25.50;;;6.43;;
72261;SDS011;60173;52.112;8.648;2023-12-20T03:54:57;18.45;;;6.63;;
72261;SDS011;60173;52.112;8.648;2023-12-20T03:57:23;20.80;;;5.85;;
72261;SDS011;60173;52.112;8.648;2023-12-20T03:59:50;21.00;;;6.35;;
72261;SDS011;60173;52.112;8.648;2023-12-20T04:02:16;22.23;;;6.20;;
72261;SDS011;60173;52.112;8.648;2023-12-20T04:04:43;23.15;;;6.72;;
72261;SDS011;60173;52.112;8.648;2023-12-20T04:07:09;29.10;;;6.45;;
72261;SDS011;60173;52.112;8.648;2023-12-20T04:09:36;15.98;;;6.82;;
72261;SDS011;60173;52.112;8.648;2023-12-20T04:12:03;26.45;;;6.38;;
72261;SDS011;60173;52.112;8.648;2023-12-20T04:14:29;26.95;;;7.30;;
72261;SDS011;60173;52.112;8.648;2023-12-20T04:16:56;21.10;;;7.43;;
72261;SDS011;60173;52.112;8.648;2023-12-20T04:19:22;23.42;;;7.90;;
72261;SDS011;60173;52.112;8.648;2023-12-20T04:21:49;25.65;;;7.30;;
72261;SDS011;60173;52.112;8.648;2023-12-20T04:24:15;19.70;;;7.25;;
72261;SDS011;60173;52.112;8.648;2023-12-20T04:26:41;21.70;;;7.97;;
72261;SDS011;60173;52.112;8.648;2023-12-20T04:29:08;25.55;;;7.70;;
72261;SDS011;60173;52.112;8.648;2023-12-20T04:31:34;20.48;;;7.13;;
72261;SDS011;60173;52.112;8.648;2023-12-20T04:34:01;23.40;;;7.13;;
72261;SDS011;60173;52.112;8.648;2023-12-20T04:36:27;25.67;;;7.18;;
72261;SDS011;60173;52.112;8.648;2023-12-20T04:38:54;28.23;;;7.43;;
72261;SDS011;60173;52.112;8.648;2023-12-20T04:41:20;27.27;;;7.72;;
72261;SDS011;60173;52.112;8.648;2023-12-20T04:43:47;20.70;;;7.13;;
72261;SDS011;60173;52.112;8.648;2023-12-20T04:46:13;20.55;;;6.75;;
72261;SDS011;60173;52.112;8.648;2023-12-20T04:48:40;37.72;;;8.45;;
72261;SDS011;60173;52.112;8.648;2023-12-20T04:51:06;25.73;;;6.80;;
72261;SDS011;60173;52.112;8.648;2023-12-20T04:53:33;19.70;;;6.18;;
72261;SDS011;60173;52.112;8.648;2023-12-20T04:55:59;29.17;;;7.28;;
72261;SDS011;60173;52.112;8.648;2023-12-20T04:58:26;28.40;;;7.55;;
72261;SDS011;60173;52.112;8.648;2023-12-20T05:00:52;28.83;;;6.53;;
72261;SDS011;60173;52.112;8.648;2023-12-20T05:03:19;24.20;;;5.90;;
72261;SDS011;60173;52.112;8.648;2023-12-20T05:05:45;21.75;;;6.53;;
72261;SDS011;60173;52.112;8.648;2023-12-20T05:08:12;28.27;;;7.10;;
72261;SDS011;60173;52.112;8.648;2023-12-20T05:10:38;24.73;;;6.95;;
72261;SDS011;60173;52.112;8.648;2023-12-20T05:13:05;22.65;;;5.72;;
72261;SDS011;60173;52.112;8.648;2023-12-20T05:15:31;28.35;;;6.78;;
72261;SDS011;60173;52.112;8.648;2023-12-20T05:17:58;19.73;;;5.88;;
72261;SDS011;60173;52.112;8.648;2023-12-20T05:20:24;22.50;;;6.20;;
72261;SDS011;60173;52.112;8.648;2023-12-20T05:22:51;33.33;;;6.18;;
72261;SDS011;60173;52.112;8.648;2023-12-20T05:25:18;22.42;;;6.03;;
72261;SDS011;60173;52.112;8.648;2023-12-20T05:27:44;25.23;;;5.90;;
72261;SDS011;60173;52.112;8.648;2023-12-20T05:30:11;20.90;;;4.93;;
72261;SDS011;60173;52.112;8.648;2023-12-20T05:32:38;22.70;;;6.32;;
72261;SDS011;60173;52.112;8.648;2023-12-20T05:35:04;35.80;;;7.15;;
72261;SDS011;60173;52.112;8.648;2023-12-20T05:37:31;23.50;;;5.97;;
72261;SDS011;60173;52.112;8.648;2023-12-20T05:39:58;27.45;;;7.00;;
72261;SDS011;60173;52.112;8.648;2023-12-20T05:42:24;25.83;;;7.22;;
72261;SDS011;60173;52.112;8.648;2023-12-20T05:44:51;32.30;;;6.85;;
72261;SDS011;60173;52.112;8.648;2023-12-20T05:47:20;33.05;;;6.97;;
72261;SDS011;60173;52.112;8.648;2023-12-20T05:49:47;35.10;;;7.35;;
72261;SDS011;60173;52.112;8.648;2023-12-20T05:52:13;26.90;;;7.05;;
72261;SDS011;60173;52.112;8.648;2023-12-20T05:54:40;29.13;;;6.88;;
72261;SDS011;60173;52.112;8.648;2023-12-20T05:57:06;23.67;;;6.70;;
72261;SDS011;60173;52.112;8.648;2023-12-20T05:59:33;25.15;;;7.28;;
72261;SDS011;60173;52.112;8.648;2023-12-20T06:01:59;33.70;;;6.47;;
72261;SDS011;60173;52.112;8.648;2023-12-20T06:04:26;24.20;;;6.65;;
72261;SDS011;60173;52.112;8.648;2023-12-20T06:06:52;32.85;;;7.57;;
72261;SDS011;60173;52.112;8.648;2023-12-20T06:09:19;29.25;;;6.82;;
72261;SDS011;60173;52.112;8.648;2023-12-20T06:11:45;21.60;;;5.72;;
72261;SDS011;60173;52.112;8.648;2023-12-20T06:14:12;24.58;;;6.30;;
72261;SDS011;60173;52.112;8.648;2023-12-20T06:16:38;29.63;;;7.07;;
72261;SDS011;60173;52.112;8.648;2023-12-20T06:19:05;34.85;;;6.28;;
72261;SDS011;60173;52.112;8.648;2023-12-20T06:21:31;38.28;;;7.40;;
72261;SDS011;60173;52.112;8.648;2023-12-20T06:23:58;27.55;;;6.25;;
72261;SDS011;60173;52.112;8.648;2023-12-20T06:26:25;36.67;;;7.47;;
72261;SDS011;60173;52.112;8.648;2023-12-20T06:28:52;37.88;;;7.57;;
72261;SDS011;60173;52.112;8.648;2023-12-20T06:31:18;25.40;;;6.97;;
72261;SDS011;60173;52.112;8.648;2023-12-20T06:33:45;32.35;;;7.20;;
72261;SDS011;60173;52.112;8.648;2023-12-20T06:36:12;29.20;;;7.47;;
72261;SDS011;60173;52.112;8.648;2023-12-20T06:38:38;27.23;;;7.00;;
72261;SDS011;60173;52.112;8.648;2023-12-20T06:41:05;27.83;;;7.22;;
72261;SDS011;60173;52.112;8.648;2023-12-20T06:43:32;32.80;;;6.78;;
72261;SDS011;60173;52.112;8.648;2023-12-20T06:46:14;27.63;;;6.82;;
72261;SDS011;60173;52.112;8.648;2023-12-20T06:48:41;27.42;;;7.25;;
72261;SDS011;60173;52.112;8.648;2023-12-20T06:51:10;29.95;;;6.57;;
72261;SDS011;60173;52.112;8.648;2023-12-20T06:53:38;29.95;;;7.68;;
72261;SDS011;60173;52.112;8.648;2023-12-20T06:56:04;31.08;;;7.22;;
72261;SDS011;60173;52.112;8.648;2023-12-20T06:58:31;35.13;;;7.28;;
72261;SDS011;60173;52.112;8.648;2023-12-20T07:00:57;35.85;;;7.25;;
72261;SDS011;60173;52.112;8.648;2023-12-20T07:03:24;28.23;;;7.32;;
72261;SDS011;60173;52.112;8.648;2023-12-20T07:05:50;21.27;;;6.45;;
72261;SDS011;60173;52.112;8.648;2023-12-20T07:08:17;31.77;;;8.00;;
72261;SDS011;60173;52.112;8.648;2023-12-20T07:10:43;27.02;;;7.07;;
72261;SDS011;60173;52.112;8.648;2023-12-20T07:13:10;21.80;;;6.22;;
72261;SDS011;60173;52.112;8.648;2023-12-20T07:15:36;34.85;;;7.22;;
72261;SDS011;60173;52.112;8.648;2023-12-20T07:18:03;34.45;;;7.30;;
72261;SDS011;60173;52.112;8.648;2023-12-20T07:20:30;26.85;;;6.78;;
72261;SDS011;60173;52.112;8.648;2023-12-20T07:22:56;27.98;;;7.15;;
72261;SDS011;60173;52.112;8.648;2023-12-20T07:25:23;24.95;;;6.43;;
72261;SDS011;60173;52.112;8.648;2023-12-20T07:27:50;27.88;;;6.40;;
72261;SDS011;60173;52.112;8.648;2023-12-20T07:30:17;24.73;;;6.07;;
72261;SDS011;60173;52.112;8.648;2023-12-20T07:32:43;23.17;;;5.65;;
72261;SDS011;60173;52.112;8.648;2023-12-20T07:35:10;30.33;;;7.05;;
72261;SDS011;60173;52.112;8.648;2023-12-20T07:37:36;29.63;;;6.72;;
72261;SDS011;60173;52.112;8.648;2023-12-20T07:40:03;29.20;;;6.95;;
72261;SDS011;60173;52.112;8.648;2023-12-20T07:42:30;28.92;;;6.18;;
72261;SDS011;60173;52.112;8.648;2023-12-20T07:44:56;32.13;;;6.82;;
72261;SDS011;60173;52.112;8.648;2023-12-20T07:47:23;36.85;;;6.78;;
72261;SDS011;60173;52.112;8.648;2023-12-20T07:49:49;28.63;;;6.68;;
72261;SDS011;60173;52.112;8.648;2023-12-20T07:52:16;30.25;;;6.68;;
72261;SDS011;60173;52.112;8.648;2023-12-20T07:54:42;30.30;;;6.85;;
72261;SDS011;60173;52.112;8.648;2023-12-20T07:57:09;29.95;;;6.70;;
72261;SDS011;60173;52.112;8.648;2023-12-20T07:59:38;28.33;;;6.97;;
72261;SDS011;60173;52.112;8.648;2023-12-20T08:02:05;27.35;;;6.95;;
72261;SDS011;60173;52.112;8.648;2023-12-20T08:04:32;34.15;;;7.18;;
72261;SDS011;60173;52.112;8.648;2023-12-20T08:06:58;31.73;;;6.28;;
72261;SDS011;60173;52.112;8.648;2023-12-20T08:09:25;24.33;;;6.47;;
72261;SDS011;60173;52.112;8.648;2023-12-20T08:11:52;27.40;;;6.95;;
72261;SDS011;60173;52.112;8.648;2023-12-20T08:14:18;27.38;;;6.18;;
72261;SDS011;60173;52.112;8.648;2023-12-20T08:16:45;30.55;;;6.28;;
72261;SDS011;60173;52.112;8.648;2023-12-20T08:19:11;26.42;;;6.35;;
72261;SDS011;60173;52.112;8.648;2023-12-20T08:21:38;24.63;;;5.85;;
72261;SDS011;60173;52.112;8.648;2023-12-20T08:24:04;26.52;;;6.10;;
72261;SDS011;60173;52.112;8.648;2023-12-20T08:26:32;21.83;;;5.45;;
72261;SDS011;60173;52.112;8.648;2023-12-20T08:28:59;29.85;;;6.35;;
72261;SDS011;60173;52.112;8.648;2023-12-20T08:31:27;32.33;;;6.22;;
72261;SDS011;60173;52.112;8.648;2023-12-20T08:33:55;22.13;;;5.30;;
72261;SDS011;60173;52.112;8.648;2023-12-20T08:36:22;25.08;;;6.13;;
72261;SDS011;60173;52.112;8.648;2023-12-20T08:38:48;27.38;;;5.50;;
72261;SDS011;60173;52.112;8.648;2023-12-20T08:41:15;22.38;;;5.85;;
72261;SDS011;60173;52.112;8.648;2023-12-20T08:43:43;17.30;;;5.00;;
72261;SDS011;60173;52.112;8.648;2023-12-20T08:46:09;32.47;;;7.22;;
72261;SDS011;60173;52.112;8.648;2023-12-20T08:48:36;24.27;;;6.03;;
72261;SDS011;60173;52.112;8.648;2023-12-20T08:51:03;22.98;;;6.43;;
72261;SDS011;60173;52.112;8.648;2023-12-20T08:53:30;24.75;;;5.82;;
72261;SDS011;60173;52.112;8.648;2023-12-20T08:55:56;27.52;;;5.93;;
72261;SDS011;60173;52.112;8.648;2023-12-20T08:58:24;29.48;;;6.50;;
72261;SDS011;60173;52.112;8.648;2023-12-20T09:00:50;22.20;;;6.07;;
72261;SDS011;60173;52.112;8.648;2023-12-20T09:03:17;29.08;;;6.93;;
72261;SDS011;60173;52.112;8.648;2023-12-20T09:05:43;23.73;;;7.57;;
72261;SDS011;60173;52.112;8.648;2023-12-20T09:08:10;26.58;;;6.30;;
72261;SDS011;60173;52.112;8.648;2023-12-20T09:10:37;32.80;;;6.70;;
72261;SDS011;60173;52.112;8.648;2023-12-20T09:13:04;30.13;;;7.03;;
72261;SDS011;60173;52.112;8.648;2023-12-20T09:15:30;25.80;;;6.60;;
72261;SDS011;60173;52.112;8.648;2023-12-20T09:18:01;19.88;;;6.43;;
72261;SDS011;60173;52.112;8.648;2023-12-20T09:20:27;24.80;;;6.43;;
72261;SDS011;60173;52.112;8.648;2023-12-20T09:22:54;23.40;;;6.88;;
72261;SDS011;60173;52.112;8.648;2023-12-20T09:25:21;29.90;;;7.15;;
72261;SDS011;60173;52.112;8.648;2023-12-20T09:27:47;35.63;;;6.90;;
72261;SDS011;60173;52.112;8.648;2023-12-20T09:30:14;34.22;;;7.47;;
72261;SDS011;60173;52.112;8.648;2023-12-20T09:32:52;31.73;;;6.78;;
72261;SDS011;60173;52.112;8.648;2023-12-20T09:35:19;25.02;;;6.15;;
72261;SDS011;60173;52.112;8.648;2023-12-20T09:37:46;30.30;;;7.05;;
72261;SDS011;60173;52.112;8.648;2023-12-20T09:40:13;23.00;;;6.72;;
72261;SDS011;60173;52.112;8.648;2023-12-20T09:45:28;26.42;;;6.60;;
72261;SDS011;60173;52.112;8.648;2023-12-20T09:47:57;22.40;;;6.50;;
72261;SDS011;60173;52.112;8.648;2023-12-20T09:50:24;30.17;;;7.70;;
72261;SDS011;60173;52.112;8.648;2023-12-20T09:52:51;23.15;;;6.82;;
72261;SDS011;60173;52.112;8.648;2023-12-20T09:55:19;30.45;;;7.30;;
72261;SDS011;60173;52.112;8.648;2023-12-20T09:57:47;28.15;;;7.65;;
72261;SDS011;60173;52.112;8.648;2023-12-20T10:00:15;27.58;;;6.88;;
72261;SDS011;60173;52.112;8.648;2023-12-20T10:02:46;24.85;;;7.53;;
72261;SDS011;60173;52.112;8.648;2023-12-20T10:05:29;29.35;;;7.72;;
72261;SDS011;60173;52.112;8.648;2023-12-20T10:07:57;25.38;;;7.05;;
72261;SDS011;60173;52.112;8.648;2023-12-20T10:10:25;31.48;;;7.75;;
72261;SDS011;60173;52.112;8.648;2023-12-20T10:13:08;28.98;;;7.47;;
72261;SDS011;60173;52.112;8.648;2023-12-20T10:15:37;27.98;;;6.90;;
72261;SDS011;60173;52.112;8.648;2023-12-20T10:18:04;35.83;;;8.35;;
72261;SDS011;60173;52.112;8.648;2023-12-20T10:20:31;33.95;;;7.60;;
72261;SDS011;60173;52.112;8.648;2023-12-20T10:22:58;28.95;;;7.38;;
72261;SDS011;60173;52.112;8.648;2023-12-20T10:25:26;29.88;;;7.07;;
72261;SDS011;60173;52.112;8.648;2023-12-20T10:28:09;25.02;;;7.53;;
72261;SDS011;60173;52.112;8.648;2023-12-20T10:30:36;25.38;;;8.40;;
72261;SDS011;60173;52.112;8.648;2023-12-20T10:33:03;30.35;;;6.90;;
72261;SDS011;60173;52.112;8.648;2023-12-20T10:35:31;28.17;;;6.80;;
72261;SDS011;60173;52.112;8.648;2023-12-20T10:37:58;29.88;;;6.60;;
72261;SDS011;60173;52.112;8.648;2023-12-20T10:40:34;25.02;;;6.72;;
72261;SDS011;60173;52.112;8.648;2023-12-20T10:43:02;24.67;;;5.97;;
72261;SDS011;60173;52.112;8.648;2023-12-20T10:45:29;19.58;;;6.47;;
72261;SDS011;60173;52.112;8.648;2023-12-20T10:47:55;25.70;;;6.45;;
72261;SDS011;60173;52.112;8.648;2023-12-20T10:50:23;18.63;;;5.97;;
72261;SDS011;60173;52.112;8.648;2023-12-20T10:52:51;17.90;;;5.85;;
72261;SDS011;60173;52.112;8.648;2023-12-20T10:55:18;22.45;;;6.10;;
72261;SDS011;60173;52.112;8.648;2023-12-20T10:57:44;21.33;;;6.07;;
72261;SDS011;60173;52.112;8.648;2023-12-20T11:00:14;17.48;;;5.45;;
72261;SDS011;60173;52.112;8.648;2023-12-20T11:02:42;12.73;;;4.25;;
72261;SDS011;60173;52.112;8.648;2023-12-20T11:05:16;15.07;;;4.32;;
72261;SDS011;60173;52.112;8.648;2023-12-20T11:07:54;18.30;;;4.10;;
72261;SDS011;60173;52.112;8.648;2023-12-20T11:10:31;16.02;;;3.80;;
72261;SDS011;60173;52.112;8.648;2023-12-20T11:13:19;18.42;;;4.15;;
72261;SDS011;60173;52.112;8.648;2023-12-20T11:15:48;17.70;;;4.38;;
72261;SDS011;60173;52.112;8.648;2023-12-20T11:18:15;21.15;;;5.07;;
72261;SDS011;60173;52.112;8.648;2023-12-20T11:20:42;14.57;;;4.50;;
72261;SDS011;60173;52.112;8.648;2023-12-20T11:23:09;13.77;;;4.00;;
72261;SDS011;60173;52.112;8.648;2023-12-20T11:25:48;21.10;;;4.30;;
72261;SDS011;60173;52.112;8.648;2023-12-20T11:28:21;16.63;;;4.20;;
72261;SDS011;60173;52.112;8.648;2023-12-20T11:30:53;15.65;;;4.07;;
72261;SDS011;60173;52.112;8.648;2023-12-20T11:33:21;21.67;;;4.07;;
72261;SDS011;60173;52.112;8.648;2023-12-20T11:35:55;20.73;;;4.65;;
72261;SDS011;60173;52.112;8.648;2023-12-20T11:38:22;20.42;;;4.38;;
72261;SDS011;60173;52.112;8.648;2023-12-20T11:40:49;16.50;;;3.78;;
72261;SDS011;60173;52.112;8.648;2023-12-20T11:43:37;19.33;;;4.13;;
72261;SDS011;60173;52.112;8.648;2023-12-20T11:46:05;13.73;;;3.80;;
72261;SDS011;60173;52.112;8.648;2023-12-20T11:48:37;14.07;;;3.55;;
72261;SDS011;60173;52.112;8.648;2023-12-20T11:51:11;10.82;;;3.28;;
72261;SDS011;60173;52.112;8.648;2023-12-20T11:53:38;17.38;;;3.90;;
72261;SDS011;60173;52.112;8.648;2023-12-20T11:56:05;15.80;;;3.60;;
72261;SDS011;60173;52.112;8.648;2023-12-20T11:58:33;14.52;;;3.50;;
72261;SDS011;60173;52.112;8.648;2023-12-20T12:01:00;18.45;;;3.83;;
72261;SDS011;60173;52.112;8.648;2023-12-20T12:03:26;16.08;;;2.92;;
72261;SDS011;60173;52.112;8.648;2023-12-20T12:05:53;19.42;;;3.90;;
72261;SDS011;60173;52.112;8.648;2023-12-20T12:08:19;12.52;;;3.45;;
72261;SDS011;60173;52.112;8.648;2023-12-20T12:10:46;15.88;;;3.85;;
72261;SDS011;60173;52.112;8.648;2023-12-20T12:13:12;20.35;;;3.88;;
72261;SDS011;60173;52.112;8.648;2023-12-20T12:15:39;19.85;;;4.40;;
72261;SDS011;60173;52.112;8.648;2023-12-20T12:18:06;15.43;;;3.95;;
72261;SDS011;60173;52.112;8.648;2023-12-20T12:20:33;21.65;;;4.38;;
72261;SDS011;60173;52.112;8.648;2023-12-20T12:23:02;12.55;;;2.97;;
72261;SDS011;60173;52.112;8.648;2023-12-20T12:25:31;16.48;;;3.70;;
72261;SDS011;60173;52.112;8.648;2023-12-20T12:27:58;24.05;;;3.80;;
72261;SDS011;60173;52.112;8.648;2023-12-20T12:30:25;17.98;;;4.70;;
72261;SDS011;60173;52.112;8.648;2023-12-20T12:32:58;18.52;;;3.60;;
72261;SDS011;60173;52.112;8.648;2023-12-20T12:35:24;15.43;;;3.40;;
72261;SDS011;60173;52.112;8.648;2023-12-20T12:37:51;13.60;;;3.40;;
72261;SDS011;60173;52.112;8.648;2023-12-20T12:40:17;21.13;;;4.28;;
72261;SDS011;60173;52.112;8.648;2023-12-20T12:42:44;19.05;;;4.13;;
72261;SDS011;60173;52.112;8.648;2023-12-20T12:45:11;19.40;;;3.83;;
72261;SDS011;60173;52.112;8.648;2023-12-20T12:47:38;22.35;;;4.93;;
72261;SDS011;60173;52.112;8.648;2023-12-20T12:50:05;20.50;;;4.15;;
72261;SDS011;60173;52.112;8.648;2023-12-20T12:52:32;21.40;;;3.75;;
72261;SDS011;60173;52.112;8.648;2023-12-20T12:54:59;13.32;;;2.70;;
72261;SDS011;60173;52.112;8.648;2023-12-20T12:57:25;8.98;;;2.22;;
72261;SDS011;60173;52.112;8.648;2023-12-20T12:59:52;5.22;;;1.25;;
72261;SDS011;60173;52.112;8.648;2023-12-20T13:02:18;6.32;;;1.35;;
72261;SDS011;60173;52.112;8.648;2023-12-20T13:04:45;7.72;;;1.80;;
72261;SDS011;60173;52.112;8.648;2023-12-20T13:07:11;7.93;;;1.38;;
72261;SDS011;60173;52.112;8.648;2023-12-20T13:09:39;8.80;;;1.70;;
72261;SDS011;60173;52.112;8.648;2023-12-20T13:12:06;16.40;;;2.38;;
72261;SDS011;60173;52.112;8.648;2023-12-20T13:14:33;14.23;;;2.42;;
72261;SDS011;60173;52.112;8.648;2023-12-20T13:17:03;6.38;;;1.60;;
72261;SDS011;60173;52.112;8.648;2023-12-20T13:19:30;8.93;;;1.77;;
72261;SDS011;60173;52.112;8.648;2023-12-20T13:21:56;8.98;;;2.05;;
72261;SDS011;60173;52.112;8.648;2023-12-20T13:24:23;7.97;;;1.80;;
72261;SDS011;60173;52.112;8.648;2023-12-20T13:26:49;7.35;;;1.83;;
72261;SDS011;60173;52.112;8.648;2023-12-20T13:29:16;10.43;;;1.55;;
72261;SDS011;60173;52.112;8.648;2023-12-20T13:31:42;13.18;;;1.67;;
72261;SDS011;60173;52.112;8.648;2023-12-20T13:34:09;8.70;;;1.55;;
72261;SDS011;60173;52.112;8.648;2023-12-20T13:36:36;10.60;;;1.92;;
72261;SDS011;60173;52.112;8.648;2023-12-20T13:39:03;15.40;;;1.85;;
72261;SDS011;60173;52.112;8.648;2023-12-20T13:41:29;11.20;;;2.05;;
72261;SDS011;60173;52.112;8.648;2023-12-20T13:43:56;10.43;;;1.77;;
72261;SDS011;60173;52.112;8.648;2023-12-20T13:46:22;7.95;;;1.63;;
72261;SDS011;60173;52.112;8.648;2023-12-20T13:48:49;8.10;;;1.73;;
72261;SDS011;60173;52.112;8.648;2023-12-20T13:51:16;9.65;;;1.80;;
72261;SDS011;60173;52.112;8.648;2023-12-20T13:53:42;11.00;;;1.98;;
72261;SDS011;60173;52.112;8.648;2023-12-20T13:56:08;10.50;;;1.80;;
72261;SDS011;60173;52.112;8.648;2023-12-20T13:58:35;12.63;;;2.22;;
72261;SDS011;60173;52.112;8.648;2023-12-20T14:01:03;13.10;;;2.97;;
72261;SDS011;60173;52.112;8.648;2023-12-20T14:03:30;15.70;;;2.33;;
72261;SDS011;60173;52.112;8.648;2023-12-20T14:05:56;12.52;;;1.80;;
72261;SDS011;60173;52.112;8.648;2023-12-20T14:08:23;13.75;;;1.85;;
72261;SDS011;60173;52.112;8.648;2023-12-20T14:10:50;6.05;;;1.60;;
72261;SDS011;60173;52.112;8.648;2023-12-20T14:13:16;12.30;;;2.10;;
72261;SDS011;60173;52.112;8.648;2023-12-20T14:15:43;13.43;;;1.90;;
72261;SDS011;60173;52.112;8.648;2023-12-20T14:18:10;8.32;;;1.63;;
72261;SDS011;60173;52.112;8.648;2023-12-20T14:20:36;13.55;;;2.10;;
72261;SDS011;60173;52.112;8.648;2023-12-20T14:23:03;8.40;;;1.55;;
72261;SDS011;60173;52.112;8.648;2023-12-20T14:25:29;9.60;;;1.73;;
72261;SDS011;60173;52.112;8.648;2023-12-20T14:28:04;6.82;;;1.40;;
72261;SDS011;60173;52.112;8.648;2023-12-20T14:30:30;12.48;;;2.10;;
72261;SDS011;60173;52.112;8.648;2023-12-20T14:32:57;8.27;;;1.55;;
72261;SDS011;60173;52.112;8.648;2023-12-20T14:35:24;13.75;;;2.72;;
72261;SDS011;60173;52.112;8.648;2023-12-20T14:37:50;9.00;;;1.80;;